Time;durP1;ratioP1;P1;durP2;ratioP2;P2;SDS_P1;SDS_P2;PMS_P1;PMS_P2;Temp;Humidity;BMP_temperature;BMP_pressure;BME280_temperature;BME280_humidity;BME280_pressure;Samples;Min_cycle;Max_cycle;Signal;HPM_P1;HPM_P2
2022/05/05 00:01:34;;;;;;;15.48;10.05;;;12.60;99.90;;;;;;4971544;28;20432;-68
2022/05/05 00:04:01;;;;;;;22.10;10.85;;;12.60;99.90;;;;;;4971293;28;20058;-69
2022/05/05 00:06:27;;;;;;;20.45;10.52;;;12.60;99.90;;;;;;4971354;28;20022;-66
2022/05/05 00:08:56;;;;;;;20.02;12.23;;;12.60;99.90;;;;;;4971016;28;20548;-68
2022/05/05 00:14:27;;;;;;;16.58;9.75;;;12.60;99.90;;;;;;4971330;28;20049;-66
2022/05/05 00:16:54;;;;;;;17.75;10.10;;;12.40;99.90;;;;;;4971218;28;20512;-66
2022/05/05 00:19:20;;;;;;;18.25;10.32;;;12.40;99.90;;;;;;4971409;28;20031;-65
2022/05/05 00:21:46;;;;;;;17.70;9.82;;;12.40;99.90;;;;;;4971135;28;20054;-69
2022/05/05 00:24:12;;;;;;;16.52;9.93;;;12.40;99.90;;;;;;4982873;28;20385;-70
2022/05/05 00:26:39;;;;;;;14.77;9.55;;;12.40;99.90;;;;;;4975330;28;20029;-66
2022/05/05 00:29:05;;;;;;;19.38;10.73;;;12.40;99.90;;;;;;4971234;28;20023;-67
2022/05/05 00:31:31;;;;;;;19.38;10.60;;;12.40;99.90;;;;;;4971375;28;20031;-70
2022/05/05 00:33:57;;;;;;;15.70;9.65;;;12.30;99.90;;;;;;4970957;28;20089;-69
2022/05/05 00:36:23;;;;;;;18.50;12.48;;;12.30;99.90;;;;;;4971087;28;20440;-68
2022/05/05 00:38:49;;;;;;;18.90;10.68;;;12.30;99.90;;;;;;4970937;28;20485;-67
2022/05/05 00:41:14;;;;;;;17.85;10.15;;;12.20;99.90;;;;;;4971423;28;20031;-71
2022/05/05 00:43:40;;;;;;;17.80;10.68;;;12.30;99.90;;;;;;4971327;28;20023;-70
2022/05/05 00:46:06;;;;;;;19.42;11.65;;;12.30;99.90;;;;;;4982674;28;20100;-68
2022/05/05 00:48:32;;;;;;;19.40;10.18;;;12.30;99.90;;;;;;4992217;28;20038;-68
2022/05/05 00:50:58;;;;;;;16.27;10.27;;;12.10;99.90;;;;;;4992255;28;20038;-68
2022/05/05 00:53:25;;;;;;;18.90;11.27;;;12.10;99.90;;;;;;4992095;28;20073;-68
2022/05/05 00:55:55;;;;;;;16.35;9.80;;;12.10;99.90;;;;;;4991817;28;20034;-69
2022/05/05 00:58:23;;;;;;;20.50;10.38;;;12.10;99.90;;;;;;4991704;28;20025;-70
2022/05/05 01:00:50;;;;;;;19.88;9.68;;;12.10;99.90;;;;;;4992104;28;20122;-69
2022/05/05 01:03:16;;;;;;;15.20;9.07;;;12.10;99.90;;;;;;4991586;28;20026;-69
2022/05/05 01:05:43;;;;;;;20.80;10.52;;;12.20;99.90;;;;;;4991727;28;20030;-65
2022/05/05 01:08:10;;;;;;;25.80;14.05;;;12.10;99.90;;;;;;4991794;28;20057;-70
2022/05/05 01:10:36;;;;;;;18.10;10.82;;;12.10;99.90;;;;;;4991985;28;20436;-70
2022/05/05 01:13:02;;;;;;;19.20;10.65;;;12.00;99.90;;;;;;4991952;28;20026;-69
2022/05/05 01:15:32;;;;;;;16.33;10.57;;;12.00;99.90;;;;;;4991646;28;20018;-69
2022/05/05 01:17:57;;;;;;;20.90;10.05;;;12.00;99.90;;;;;;4991918;28;20069;-69
2022/05/05 01:20:23;;;;;;;17.77;11.25;;;12.00;99.90;;;;;;4991863;28;20081;-70
2022/05/05 01:22:50;;;;;;;16.55;8.95;;;12.00;99.90;;;;;;4994123;28;20057;-65
2022/05/05 01:28:11;;;;;;;19.38;10.23;;;11.80;99.90;;;;;;5031006;28;20025;-71
2022/05/05 01:30:45;;;;;;;19.92;10.85;;;11.80;99.90;;;;;;5013694;28;20384;-71
2022/05/05 01:33:19;;;;;;;17.83;10.68;;;11.60;99.90;;;;;;5012425;28;20030;-69
2022/05/05 01:35:48;;;;;;;16.92;11.05;;;11.60;99.90;;;;;;5014999;28;20427;-68
2022/05/05 01:38:15;;;;;;;18.20;10.07;;;11.60;99.90;;;;;;5014832;28;20537;-66
2022/05/05 01:40:43;;;;;;;17.73;11.23;;;11.60;99.90;;;;;;5014876;28;20038;-70
2022/05/05 01:43:09;;;;;;;19.75;12.07;;;11.60;99.90;;;;;;4995178;28;20026;-70
2022/05/05 01:45:36;;;;;;;21.13;12.25;;;11.50;99.90;;;;;;4994816;28;20054;-71
2022/05/05 01:48:02;;;;;;;21.40;12.70;;;11.50;99.90;;;;;;5011441;28;20054;-70
2022/05/05 01:50:31;;;;;;;19.38;11.63;;;11.50;99.90;;;;;;5014949;28;20041;-70
2022/05/05 01:52:59;;;;;;;18.45;11.63;;;11.50;99.90;;;;;;5014685;28;20045;-71
2022/05/05 01:55:27;;;;;;;19.13;11.38;;;11.40;99.90;;;;;;5014489;28;20060;-72
2022/05/05 01:57:54;;;;;;;21.48;12.15;;;11.30;99.90;;;;;;4996800;28;20468;-70
2022/05/05 02:00:20;;;;;;;20.23;12.48;;;11.30;99.90;;;;;;5014151;28;20065;-71
2022/05/05 02:02:46;;;;;;;22.15;12.30;;;11.30;99.90;;;;;;5014942;28;20515;-71
2022/05/05 02:05:13;;;;;;;20.83;12.32;;;11.20;99.90;;;;;;5014829;28;20030;-69
2022/05/05 02:07:41;;;;;;;23.27;11.88;;;11.20;99.90;;;;;;5014232;28;20029;-67
2022/05/05 02:10:08;;;;;;;18.20;11.45;;;11.20;99.90;;;;;;5014241;28;20028;-68
2022/05/05 02:12:36;;;;;;;22.15;14.18;;;11.10;99.90;;;;;;5013924;28;20025;-69
2022/05/05 02:15:06;;;;;;;24.17;14.10;;;11.00;99.90;;;;;;5014078;28;20025;-69
2022/05/05 02:17:42;;;;;;;22.40;13.18;;;11.00;99.90;;;;;;5016544;28;20030;-68
2022/05/05 02:20:13;;;;;;;21.50;13.45;;;11.00;99.90;;;;;;5033821;28;20124;-69
2022/05/05 02:22:40;;;;;;;21.13;14.05;;;10.90;99.90;;;;;;5033863;28;20022;-67
2022/05/05 02:25:06;;;;;;;23.58;14.43;;;10.90;99.90;;;;;;5032407;28;20044;-69
2022/05/05 02:27:51;;;;;;;22.15;14.60;;;10.90;99.90;;;;;;5013530;28;20025;-71
2022/05/05 02:30:21;;;;;;;22.55;14.45;;;10.90;99.90;;;;;;5013299;28;20074;-70
2022/05/05 02:32:47;;;;;;;22.67;14.07;;;10.80;99.90;;;;;;5013956;28;20439;-71
2022/05/05 02:35:14;;;;;;;23.02;13.75;;;10.70;99.90;;;;;;5013395;28;20061;-68
2022/05/05 02:40:25;;;;;;;20.90;14.27;;;10.70;99.90;;;;;;5012900;28;20124;-67
2022/05/05 02:42:51;;;;;;;21.27;13.55;;;10.70;99.90;;;;;;5013453;28;20425;-70
2022/05/05 02:45:17;;;;;;;20.48;13.73;;;10.70;99.90;;;;;;5012092;28;20137;-70
2022/05/05 02:47:45;;;;;;;21.15;12.80;;;10.70;99.90;;;;;;5013485;28;20041;-67
2022/05/05 02:50:11;;;;;;;22.85;13.25;;;10.70;99.90;;;;;;5012590;28;20044;-71
2022/05/05 02:52:37;;;;;;;22.27;13.43;;;10.70;99.90;;;;;;5029684;28;20125;-70
2022/05/05 02:55:03;;;;;;;20.98;12.93;;;10.70;99.90;;;;;;5030024;28;20022;-64
2022/05/05 02:57:29;;;;;;;26.40;14.18;;;10.70;99.90;;;;;;5013073;28;20022;-69
2022/05/05 02:59:55;;;;;;;20.38;14.13;;;10.70;99.90;;;;;;5012564;28;20132;-69
2022/05/05 03:02:21;;;;;;;23.73;13.30;;;10.70;99.90;;;;;;5012788;28;20080;-71
2022/05/05 03:04:48;;;;;;;21.85;15.32;;;10.60;99.90;;;;;;5012641;28;20026;-68
2022/05/05 03:07:14;;;;;;;22.25;14.57;;;10.70;99.90;;;;;;5012903;28;20529;-68
2022/05/05 03:09:40;;;;;;;21.67;13.13;;;10.50;99.90;;;;;;5012443;28;20380;-67
2022/05/05 03:12:10;;;;;;;22.17;14.27;;;10.50;99.90;;;;;;5023035;28;20044;-70
2022/05/05 03:14:37;;;;;;;21.50;13.10;;;10.50;99.90;;;;;;5012554;28;20051;-67
2022/05/05 03:17:04;;;;;;;23.45;13.13;;;10.50;99.90;;;;;;5011906;28;20104;-70
2022/05/05 03:19:30;;;;;;;24.38;14.63;;;10.60;99.90;;;;;;5012564;28;20056;-71
2022/05/05 03:21:57;;;;;;;20.23;13.30;;;10.60;99.90;;;;;;5012790;28;20026;-69
2022/05/05 03:24:23;;;;;;;20.95;13.23;;;10.60;99.90;;;;;;5012656;28;20034;-69
2022/05/05 03:26:49;;;;;;;21.10;14.00;;;10.70;99.90;;;;;;5012571;28;20025;-68
2022/05/05 03:29:15;;;;;;;23.35;13.93;;;10.60;99.90;;;;;;5011927;28;20103;-68
2022/05/05 03:31:41;;;;;;;19.70;12.73;;;10.70;99.90;;;;;;5023489;28;20022;-70
2022/05/05 03:34:07;;;;;;;20.35;12.52;;;10.70;99.90;;;;;;5032481;28;20495;-71
2022/05/05 03:36:33;;;;;;;32.20;18.13;;;10.60;99.90;;;;;;5014029;28;20028;-66
2022/05/05 03:38:59;;;;;;;24.83;14.40;;;10.60;99.90;;;;;;5012283;28;20030;-69
2022/05/05 03:41:25;;;;;;;21.15;12.90;;;10.60;99.90;;;;;;5012435;28;20107;-70
2022/05/05 03:43:54;;;;;;;19.13;11.52;;;10.90;99.90;;;;;;5012198;28;20065;-68
2022/05/05 03:46:19;;;;;;;20.35;11.23;;;11.10;99.90;;;;;;5012007;28;20108;-68
2022/05/05 03:48:45;;;;;;;17.90;10.98;;;11.50;99.90;;;;;;5030258;28;20033;-69
2022/05/05 03:51:11;;;;;;;19.27;11.48;;;11.80;99.90;;;;;;5031924;28;20040;-71
2022/05/05 03:53:37;;;;;;;18.90;12.23;;;12.30;99.90;;;;;;5032175;28;20025;-71
2022/05/05 03:56:04;;;;;;;15.48;9.25;;;12.70;99.90;;;;;;5031768;28;20032;-66
2022/05/05 03:58:31;;;;;;;21.42;10.27;;;13.20;99.90;;;;;;5014174;28;20025;-70
2022/05/05 04:00:57;;;;;;;16.88;11.05;;;13.60;99.90;;;;;;5011664;28;20048;-68
2022/05/05 04:03:31;;;;;;;17.02;9.25;;;14.10;99.90;;;;;;5011296;28;20018;-66
2022/05/05 04:06:07;;;;;;;18.75;10.70;;;14.40;99.90;;;;;;5012153;28;20479;-67
2022/05/05 04:08:34;;;;;;;22.45;10.80;;;14.70;99.90;;;;;;5011442;28;20472;-70
2022/05/05 04:11:00;;;;;;;17.67;11.50;;;15.20;99.90;;;;;;5011681;28;20036;-70
2022/05/05 04:13:26;;;;;;;18.08;11.02;;;15.30;99.90;;;;;;5012036;28;20029;-70
2022/05/05 04:15:52;;;;;;;16.02;11.65;;;15.90;99.90;;;;;;5011497;28;20357;-71
2022/05/05 04:18:18;;;;;;;19.15;12.05;;;16.20;99.90;;;;;;5017368;28;20025;-69
2022/05/05 04:20:47;;;;;;;22.35;13.60;;;16.80;98.90;;;;;;5020922;28;20034;-70
2022/05/05 04:23:13;;;;;;;23.27;11.77;;;17.30;97.30;;;;;;5013401;28;20080;-70
2022/05/05 04:25:44;;;;;;;16.05;10.75;;;18.00;93.90;;;;;;5011493;28;20110;-71
2022/05/05 04:28:12;;;;;;;20.13;10.80;;;18.30;92.20;;;;;;5010242;28;20036;-71
2022/05/05 04:30:39;;;;;;;17.77;10.95;;;18.30;91.90;;;;;;4991498;28;20030;-71
2022/05/05 04:33:09;;;;;;;19.65;10.65;;;18.50;91.40;;;;;;4991965;28;20609;-71
2022/05/05 04:35:38;;;;;;;20.13;12.10;;;18.70;90.30;;;;;;4991933;28;20520;-65
2022/05/05 04:38:13;;;;;;;23.25;12.48;;;19.20;88.10;;;;;;4999486;28;20033;-71
2022/05/05 04:40:43;;;;;;;23.33;15.00;;;19.20;86.80;;;;;;5024988;28;20042;-71
2022/05/05 04:43:13;;;;;;;29.38;15.13;;;19.60;85.80;;;;;;5007661;28;20050;-71
2022/05/05 04:45:43;;;;;;;22.70;14.38;;;20.20;82.40;;;;;;5022923;28;20069;-71
2022/05/05 04:48:12;;;;;;;23.55;15.45;;;20.70;81.40;;;;;;5012696;28;20037;-71
2022/05/05 04:50:38;;;;;;;22.83;15.18;;;21.30;79.30;;;;;;5011384;28;20026;-70
2022/05/05 04:53:04;;;;;;;20.95;13.90;;;21.70;77.30;;;;;;5011778;28;20547;-71
2022/05/05 04:55:30;;;;;;;20.42;14.20;;;22.10;75.50;;;;;;5011332;28;20483;-71
2022/05/05 04:57:56;;;;;;;25.38;14.25;;;22.40;74.50;;;;;;5011356;28;20034;-72
2022/05/05 05:00:22;;;;;;;22.48;15.18;;;22.30;75.40;;;;;;5011172;28;20034;-71
2022/05/05 05:02:49;;;;;;;24.83;14.20;;;21.80;73.80;;;;;;5011472;28;20065;-69
2022/05/05 05:05:15;;;;;;;25.30;13.63;;;20.60;76.50;;;;;;5011296;28;20032;-72
2022/05/05 05:07:40;;;;;;;21.75;14.10;;;19.90;78.60;;;;;;5011744;28;20480;-72
2022/05/05 05:10:07;;;;;;;24.88;15.65;;;19.30;81.20;;;;;;5015110;28;20022;-71
2022/05/05 05:12:33;;;;;;;26.38;15.48;;;18.90;85.80;;;;;;5014954;28;20022;-71
2022/05/05 05:14:59;;;;;;;23.95;14.80;;;18.50;89.80;;;;;;5015015;28;20026;-72
2022/05/05 05:17:25;;;;;;;30.65;15.50;;;18.50;90.70;;;;;;5015081;28;20033;-72
2022/05/05 05:19:51;;;;;;;23.50;15.02;;;18.40;92.90;;;;;;5014866;28;20383;-71
2022/05/05 05:22:17;;;;;;;28.35;19.42;;;18.40;92.80;;;;;;5014962;28;20062;-71
2022/05/05 05:24:43;;;;;;;22.55;16.33;;;18.30;93.80;;;;;;5014821;28;20022;-71
2022/05/05 05:27:09;;;;;;;27.35;16.48;;;18.30;93.90;;;;;;5014921;28;20096;-71
2022/05/05 05:29:35;;;;;;;33.38;18.05;;;18.20;94.10;;;;;;5014362;28;20141;-67
2022/05/05 05:32:01;;;;;;;28.85;18.20;;;18.30;95.00;;;;;;5014208;28;20515;-71
2022/05/05 05:34:27;;;;;;;22.88;15.10;;;18.30;93.90;;;;;;5012576;28;20357;-70
2022/05/05 05:36:53;;;;;;;22.13;15.73;;;18.20;95.10;;;;;;5014288;28;20105;-70
2022/05/05 05:39:19;;;;;;;28.02;16.48;;;18.30;94.80;;;;;;5013955;28;20041;-70
2022/05/05 05:41:45;;;;;;;22.67;15.45;;;18.40;96.00;;;;;;5014761;28;20080;-71
2022/05/05 05:44:11;;;;;;;23.48;15.77;;;18.40;94.30;;;;;;5014449;28;20026;-72
2022/05/05 05:46:37;;;;;;;21.27;14.65;;;18.40;96.00;;;;;;5014887;28;20048;-70
2022/05/05 05:49:05;;;;;;;21.70;13.95;;;18.50;95.20;;;;;;5014176;28;20099;-71
2022/05/05 05:51:34;;;;;;;21.65;14.88;;;18.50;94.00;;;;;;5013159;28;20037;-71
2022/05/05 05:54:00;;;;;;;23.60;13.75;;;18.60;92.80;;;;;;5014344;28;20053;-71
2022/05/05 05:56:26;;;;;;;24.80;14.02;;;18.60;92.60;;;;;;5014367;28;20034;-69
2022/05/05 05:58:52;;;;;;;23.08;14.73;;;18.40;92.70;;;;;;5013814;28;20026;-69
2022/05/05 06:01:17;;;;;;;26.00;15.65;;;18.50;95.70;;;;;;5014034;28;20407;-71
2022/05/05 06:03:56;;;;;;;25.73;17.05;;;18.70;94.90;;;;;;5013892;28;20091;-72
2022/05/05 06:06:25;;;;;;;29.55;18.50;;;18.90;97.60;;;;;;5014097;28;20056;-70
2022/05/05 06:08:51;;;;;;;25.83;18.73;;;19.00;95.10;;;;;;5013755;28;20022;-69
2022/05/05 06:11:18;;;;;;;29.20;18.85;;;19.10;93.50;;;;;;5014234;28;20052;-71
2022/05/05 06:13:44;;;;;;;30.92;20.63;;;19.20;94.40;;;;;;5014013;28;20457;-72
2022/05/05 06:16:10;;;;;;;28.23;18.23;;;19.20;95.10;;;;;;5012392;28;20045;-72
2022/05/05 06:18:39;;;;;;;30.83;16.77;;;19.20;96.30;;;;;;5012700;28;20030;-72
2022/05/05 06:21:06;;;;;;;25.65;17.95;;;19.50;96.90;;;;;;5013921;28;20038;-71
2022/05/05 06:23:32;;;;;;;25.65;18.42;;;19.70;92.90;;;;;;5013904;28;20014;-72
2022/05/05 06:25:58;;;;;;;27.65;18.70;;;19.70;94.40;;;;;;5013144;28;20057;-70
2022/05/05 06:28:24;;;;;;;28.35;18.33;;;19.70;92.90;;;;;;5017478;28;20064;-70
2022/05/05 06:30:49;;;;;;;29.80;20.65;;;19.90;93.00;;;;;;5013565;28;20026;-71
2022/05/05 06:33:15;;;;;;;33.13;19.20;;;19.90;92.40;;;;;;5013474;28;20080;-71
2022/05/05 06:35:41;;;;;;;27.65;17.67;;;20.20;91.00;;;;;;5013084;28;20029;-68
2022/05/05 06:38:07;;;;;;;29.35;18.23;;;20.40;89.60;;;;;;5013511;28;20026;-70
2022/05/05 06:40:34;;;;;;;33.05;19.85;;;20.40;90.50;;;;;;5012296;28;20089;-70
2022/05/05 06:43:00;;;;;;;29.40;18.25;;;20.50;92.00;;;;;;5012578;28;20026;-68
2022/05/05 06:45:26;;;;;;;25.55;18.27;;;20.80;89.60;;;;;;5012740;28;20467;-69
2022/05/05 06:47:53;;;;;;;26.05;19.05;;;20.80;88.30;;;;;;5013431;28;20030;-70
2022/05/05 06:50:21;;;;;;;29.02;19.45;;;21.00;91.10;;;;;;5012766;28;20068;-72
2022/05/05 06:52:48;;;;;;;23.15;16.02;;;21.30;89.60;;;;;;5013475;28;20030;-70
2022/05/05 06:55:15;;;;;;;25.27;17.30;;;21.20;83.70;;;;;;5013303;28;20026;-72
2022/05/05 06:57:41;;;;;;;23.25;16.75;;;21.30;83.40;;;;;;5012831;28;20022;-72
2022/05/05 07:00:07;;;;;;;22.90;16.45;;;21.30;88.00;;;;;;5012666;28;20488;-71
2022/05/05 07:02:33;;;;;;;25.02;16.92;;;21.50;84.70;;;;;;5013053;28;20065;-71
2022/05/05 07:07:43;;;;;;;24.20;16.15;;;21.40;84.40;;;;;;5012445;28;20029;-70
2022/05/05 07:12:53;;;;;;;20.08;14.10;;;21.30;85.60;;;;;;5012610;28;20057;-73
2022/05/05 07:15:19;;;;;;;23.08;14.05;;;21.40;88.00;;;;;;5012480;28;20562;-72
2022/05/05 07:17:46;;;;;;;20.15;14.52;;;21.60;81.00;;;;;;5011956;28;20050;-70
2022/05/05 07:20:12;;;;;;;22.35;13.70;;;21.80;79.20;;;;;;5011757;28;20487;-71
2022/05/05 07:22:38;;;;;;;18.73;11.95;;;21.90;79.70;;;;;;5012247;28;20417;-72
2022/05/05 07:25:04;;;;;;;19.75;12.98;;;22.10;77.50;;;;;;5011527;28;20065;-69
2022/05/05 07:27:30;;;;;;;21.63;13.45;;;22.20;80.10;;;;;;5012201;28;20570;-71
2022/05/05 07:29:56;;;;;;;19.65;15.25;;;22.40;75.70;;;;;;5012267;28;20038;-71
2022/05/05 07:32:21;;;;;;;27.27;14.27;;;22.50;79.70;;;;;;5011080;28;20072;-72
2022/05/05 07:34:47;;;;;;;23.23;14.77;;;22.50;75.20;;;;;;5012140;28;20073;-72
2022/05/05 07:37:13;;;;;;;26.65;14.65;;;22.50;80.80;;;;;;5011987;28;20479;-71
2022/05/05 07:39:39;;;;;;;20.27;14.48;;;22.50;78.90;;;;;;5012101;28;20092;-70
2022/05/05 07:42:05;;;;;;;24.27;15.52;;;23.10;78.70;;;;;;5012206;28;20022;-72
2022/05/05 07:44:32;;;;;;;24.38;15.30;;;23.10;75.60;;;;;;5012074;28;20452;-71
2022/05/05 07:46:58;;;;;;;23.83;15.73;;;23.30;76.40;;;;;;5011886;28;20080;-69
2022/05/05 07:49:24;;;;;;;33.80;20.02;;;23.10;76.60;;;;;;5012229;28;20053;-72
2022/05/05 07:51:52;;;;;;;36.30;20.90;;;22.90;77.10;;;;;;5012197;28;20464;-71
2022/05/05 07:54:34;;;;;;;29.35;19.52;;;23.00;79.10;;;;;;5011794;28;20076;-72
2022/05/05 07:57:08;;;;;;;25.80;17.58;;;23.00;77.60;;;;;;5012172;28;20026;-72
2022/05/05 07:59:34;;;;;;;25.80;16.65;;;22.60;74.70;;;;;;5011020;28;20033;-70
2022/05/05 08:02:00;;;;;;;23.48;16.15;;;22.60;73.90;;;;;;5012160;28;20049;-73
2022/05/05 08:04:26;;;;;;;32.28;16.50;;;22.90;76.70;;;;;;5012181;28;20030;-72
2022/05/05 08:06:52;;;;;;;21.45;14.35;;;23.10;75.90;;;;;;5011548;28;20072;-72
2022/05/05 08:09:18;;;;;;;26.88;15.38;;;23.20;75.40;;;;;;5011250;28;20020;-67
2022/05/05 08:11:44;;;;;;;21.58;14.25;;;22.90;74.40;;;;;;5011312;28;20025;-73
2022/05/05 08:14:10;;;;;;;23.55;13.57;;;23.30;75.20;;;;;;5011730;28;20515;-73
2022/05/05 08:16:36;;;;;;;20.88;13.70;;;23.20;73.60;;;;;;5011791;28;20056;-69
2022/05/05 08:19:02;;;;;;;33.05;14.30;;;23.40;73.50;;;;;;5011531;28;20034;-71
2022/05/05 08:21:28;;;;;;;24.95;12.60;;;23.30;74.00;;;;;;5011826;28;20130;-71
2022/05/05 08:29:24;;;;;;;21.05;12.02;;;23.80;69.90;;;;;;5011761;28;20440;-72
2022/05/05 08:31:50;;;;;;;23.25;12.10;;;23.40;66.30;;;;;;5011697;28;20064;-72
2022/05/05 08:34:16;;;;;;;16.38;10.52;;;23.80;67.80;;;;;;5011500;28;20038;-73
2022/05/05 08:36:41;;;;;;;19.15;12.50;;;24.10;67.30;;;;;;5011692;28;20084;-72
2022/05/05 08:39:07;;;;;;;18.35;11.07;;;23.90;68.20;;;;;;5010373;28;20494;-72
2022/05/05 08:41:33;;;;;;;17.58;9.48;;;24.00;66.90;;;;;;5011103;28;20025;-73
2022/05/05 08:44:00;;;;;;;15.70;9.55;;;23.80;65.70;;;;;;5014205;28;20033;-72
2022/05/05 08:46:27;;;;;;;20.50;10.82;;;23.80;65.80;;;;;;5015372;28;20050;-72
2022/05/05 08:49:03;;;;;;;16.02;9.23;;;23.90;68.60;;;;;;5015547;28;20037;-73
2022/05/05 08:51:42;;;;;;;25.67;10.65;;;24.20;68.30;;;;;;5015294;28;20026;-72
2022/05/05 08:54:16;;;;;;;17.33;9.93;;;24.50;68.50;;;;;;5015212;28;20391;-73
2022/05/05 08:56:48;;;;;;;17.42;9.65;;;24.70;70.30;;;;;;5015299;28;20112;-69
2022/05/05 08:59:18;;;;;;;15.23;9.63;;;24.80;67.00;;;;;;5014839;28;20061;-70
2022/05/05 09:01:44;;;;;;;14.15;7.35;;;25.10;65.00;;;;;;5013781;28;20482;-71
2022/05/05 09:04:11;;;;;;;13.82;6.55;;;24.90;62.20;;;;;;5014933;28;20026;-70
2022/05/05 09:06:50;;;;;;;14.05;7.90;;;25.00;62.40;;;;;;5014839;28;20041;-70
2022/05/05 09:09:25;;;;;;;14.70;7.28;;;25.00;62.40;;;;;;5015249;28;20077;-69
2022/05/05 09:12:19;;;;;;;17.63;8.98;;;25.20;62.60;;;;;;5013761;28;20418;-70
2022/05/05 09:14:50;;;;;;;15.70;7.97;;;25.20;63.50;;;;;;5015003;28;20033;-72
2022/05/05 09:17:18;;;;;;;13.85;9.15;;;25.20;62.10;;;;;;5014351;28;20496;-71
2022/05/05 09:19:47;;;;;;;22.42;9.10;;;25.40;62.40;;;;;;5013414;28;20041;-69
2022/05/05 09:22:15;;;;;;;13.35;8.52;;;25.30;61.90;;;;;;5014551;28;20048;-70
2022/05/05 09:24:52;;;;;;;16.70;7.97;;;25.40;61.40;;;;;;5014488;28;20018;-70
2022/05/05 09:27:24;;;;;;;12.50;7.22;;;25.30;62.40;;;;;;5014670;28;20026;-71
2022/05/05 09:30:04;;;;;;;13.75;7.10;;;25.30;62.00;;;;;;5013709;28;20464;-70
2022/05/05 09:32:33;;;;;;;6.40;4.78;;;24.70;58.00;;;;;;5014675;28;20471;-70
2022/05/05 09:35:02;;;;;;;10.35;5.63;;;24.80;57.50;;;;;;5014745;28;20045;-70
2022/05/05 09:37:29;;;;;;;10.15;4.78;;;24.90;57.60;;;;;;5013923;28;20089;-71
2022/05/05 09:39:56;;;;;;;10.35;4.72;;;25.10;58.50;;;;;;5014205;28;20076;-71
2022/05/05 09:42:42;;;;;;;8.05;5.43;;;24.70;56.60;;;;;;5014300;28;20061;-71
2022/05/05 09:45:18;;;;;;;7.28;4.53;;;25.00;58.00;;;;;;5014375;28;20121;-70
2022/05/05 09:47:50;;;;;;;6.63;5.05;;;24.70;57.30;;;;;;5013962;28;20077;-64
2022/05/05 09:50:21;;;;;;;11.45;5.05;;;25.10;59.10;;;;;;5014023;28;20037;-64
2022/05/05 09:58:23;;;;;;;7.22;4.47;;;25.50;61.70;;;;;;5014146;28;20026;-64
2022/05/05 10:01:03;;;;;;;7.35;5.22;;;25.50;60.10;;;;;;5013439;28;20172;-68
2022/05/05 10:04:00;;;;;;;7.90;4.55;;;25.70;60.00;;;;;;5013503;28;20448;-65
2022/05/05 10:06:34;;;;;;;10.02;5.00;;;25.90;61.60;;;;;;5014070;28;20036;-69
2022/05/05 10:09:03;;;;;;;7.80;4.68;;;25.90;61.00;;;;;;5013609;28;20033;-69
2022/05/05 10:11:29;;;;;;;9.20;4.85;;;25.80;58.70;;;;;;5013962;28;20029;-71
2022/05/05 10:13:56;;;;;;;7.15;4.68;;;25.90;58.60;;;;;;5012799;28;20021;-66
2022/05/05 10:16:23;;;;;;;9.70;4.18;;;25.90;57.80;;;;;;5013706;28;20117;-68
2022/05/05 10:18:51;;;;;;;7.82;3.97;;;26.00;58.50;;;;;;5016302;28;20376;-69
2022/05/05 10:21:44;;;;;;;8.00;4.38;;;26.20;58.50;;;;;;5024393;28;20033;-72
2022/05/05 10:24:17;;;;;;;9.50;4.65;;;26.30;57.60;;;;;;5013854;28;20064;-71
2022/05/05 10:26:49;;;;;;;7.93;3.83;;;26.00;56.80;;;;;;5020824;28;20556;-70
2022/05/05 10:29:35;;;;;;;7.05;4.47;;;25.90;58.40;;;;;;5026703;28;20030;-67
2022/05/05 10:32:09;;;;;;;15.38;4.57;;;26.10;58.00;;;;;;4993764;28;20057;-72
2022/05/05 10:34:40;;;;;;;7.43;4.63;;;25.90;57.50;;;;;;5016049;28;20104;-71
2022/05/05 10:37:13;;;;;;;6.82;3.85;;;25.60;56.30;;;;;;5017085;28;20026;-68
2022/05/05 10:40:04;;;;;;;6.43;4.55;;;25.90;57.20;;;;;;5027025;28;20480;-67
2022/05/05 10:42:34;;;;;;;4.57;3.70;;;25.80;53.90;;;;;;4987080;28;20031;-68
2022/05/05 10:45:07;;;;;;;7.60;4.05;;;25.80;54.90;;;;;;4980134;28;20043;-66
2022/05/05 10:48:01;;;;;;;5.93;3.58;;;25.60;55.60;;;;;;4972472;28;20045;-70
2022/05/05 10:50:28;;;;;;;5.60;3.80;;;25.70;55.10;;;;;;4971200;28;20074;-70
2022/05/05 10:52:55;;;;;;;5.00;3.42;;;25.80;55.00;;;;;;4970870;28;20134;-69
2022/05/05 10:55:26;;;;;;;7.38;3.50;;;25.80;55.00;;;;;;4989600;28;20084;-69
2022/05/05 10:57:55;;;;;;;13.88;4.13;;;25.90;53.60;;;;;;4960249;28;20089;-68
2022/05/05 11:00:23;;;;;;;8.65;4.10;;;26.00;55.40;;;;;;4955010;28;20054;-64
2022/05/05 11:02:58;;;;;;;18.88;5.47;;;25.80;55.50;;;;;;4971398;28;20034;-71
2022/05/05 11:05:38;;;;;;;5.47;4.00;;;25.70;53.80;;;;;;4970841;28;20042;-70
2022/05/05 11:08:10;;;;;;;5.55;3.85;;;25.60;55.00;;;;;;4974551;28;20023;-66
2022/05/05 11:10:41;;;;;;;7.97;4.13;;;25.70;55.30;;;;;;4970021;28;20073;-67
2022/05/05 11:13:39;;;;;;;6.47;4.00;;;25.70;54.60;;;;;;4969552;28;20046;-63
2022/05/05 11:22:17;;;;;;;7.95;4.22;;;25.80;53.80;;;;;;5021443;28;20519;-70
2022/05/05 11:24:46;;;;;;;6.80;3.92;;;25.60;52.50;;;;;;5030307;28;20072;-69
2022/05/05 11:27:15;;;;;;;6.88;4.18;;;25.70;52.10;;;;;;5032509;28;20069;-67
2022/05/05 11:29:53;;;;;;;7.90;4.25;;;25.80;54.00;;;;;;5031925;28;20096;-65
2022/05/05 11:32:21;;;;;;;9.07;4.05;;;25.60;53.70;;;;;;5032277;28;20034;-64
2022/05/05 11:34:48;;;;;;;4.60;3.53;;;25.40;52.80;;;;;;5031372;28;20084;-67
2022/05/05 11:37:15;;;;;;;7.28;3.83;;;25.60;53.50;;;;;;5029486;28;20026;-67
2022/05/05 11:39:41;;;;;;;8.05;3.72;;;25.70;54.70;;;;;;5019533;28;20123;-68
2022/05/05 11:42:11;;;;;;;5.75;4.03;;;25.80;54.80;;;;;;5031142;28;20029;-66
2022/05/05 11:44:39;;;;;;;8.57;5.40;;;26.00;54.60;;;;;;5001398;28;20025;-63
2022/05/05 11:47:12;;;;;;;9.68;3.97;;;26.00;53.20;;;;;;5031682;28;20117;-68
2022/05/05 11:49:43;;;;;;;6.68;3.60;;;25.80;53.80;;;;;;5031661;28;20049;-63
2022/05/05 11:52:14;;;;;;;4.97;3.60;;;25.80;52.00;;;;;;5032084;28;20428;-68
2022/05/05 11:54:40;;;;;;;15.80;4.95;;;25.90;51.70;;;;;;5017259;28;20065;-64
2022/05/05 11:57:06;;;;;;;8.48;3.85;;;26.00;55.10;;;;;;5012084;28;20032;-67
2022/05/05 12:02:23;;;;;;;4.32;3.30;;;26.00;52.10;;;;;;5011924;28;20080;-63
2022/05/05 12:04:52;;;;;;;7.78;4.22;;;26.10;51.90;;;;;;5018144;28;20092;-64
2022/05/05 12:07:20;;;;;;;7.35;4.43;;;26.00;51.90;;;;;;5011811;28;20026;-67
2022/05/05 12:09:55;;;;;;;6.50;3.53;;;26.00;50.80;;;;;;5008355;28;20021;-63
2022/05/05 12:12:24;;;;;;;4.95;3.30;;;26.10;51.20;;;;;;5014783;28;20022;-69
2022/05/05 12:14:56;;;;;;;7.18;3.33;;;26.00;50.20;;;;;;4996155;28;20030;-68
2022/05/05 12:17:24;;;;;;;8.40;4.32;;;26.00;50.20;;;;;;5016333;28;20033;-68
2022/05/05 12:19:52;;;;;;;7.63;3.83;;;26.10;50.30;;;;;;4997715;28;20034;-67
2022/05/05 12:22:39;;;;;;;6.43;3.80;;;26.10;52.30;;;;;;5007890;28;20033;-64
2022/05/05 12:25:16;;;;;;;10.38;3.50;;;26.10;50.70;;;;;;5023869;28;20474;-70
2022/05/05 12:28:03;;;;;;;6.63;3.40;;;26.00;49.70;;;;;;5024560;28;20041;-70
2022/05/05 12:30:39;;;;;;;7.65;3.15;;;26.20;51.60;;;;;;5003557;28;20030;-66
2022/05/05 12:33:26;;;;;;;6.65;3.40;;;26.10;48.40;;;;;;5010387;28;20040;-71
2022/05/05 12:35:52;;;;;;;6.25;3.22;;;26.20;48.20;;;;;;5011160;28;20044;-72
2022/05/05 12:38:19;;;;;;;5.15;3.17;;;26.10;48.40;;;;;;5011478;28;20146;-65
2022/05/05 12:40:48;;;;;;;7.90;3.38;;;26.20;51.50;;;;;;5011126;28;20070;-65
2022/05/05 12:43:17;;;;;;;6.22;3.45;;;26.20;49.80;;;;;;5011327;28;20018;-69
2022/05/05 12:45:45;;;;;;;5.85;3.45;;;26.20;48.70;;;;;;5011185;28;20094;-66
2022/05/05 12:48:12;;;;;;;6.55;3.85;;;26.10;49.40;;;;;;5011506;28;20042;-71
2022/05/05 12:50:40;;;;;;;6.40;4.10;;;26.40;51.00;;;;;;5011248;28;20022;-70
2022/05/05 13:01:30;;;;;;;7.82;4.20;;;26.00;51.60;;;;;;5010860;28;20149;-69
2022/05/05 13:04:01;;;;;;;10.35;4.47;;;26.10;49.80;;;;;;5011039;28;20026;-70
2022/05/05 13:06:27;;;;;;;8.30;4.05;;;26.10;48.50;;;;;;5011119;28;20022;-65
2022/05/05 13:08:55;;;;;;;6.28;4.13;;;26.10;49.30;;;;;;5011112;28;20064;-70
2022/05/05 13:11:21;;;;;;;4.63;3.40;;;26.20;49.30;;;;;;5010925;28;20437;-71
2022/05/05 13:13:49;;;;;;;5.05;3.30;;;26.20;48.80;;;;;;5010280;28;20029;-70
2022/05/05 13:16:16;;;;;;;4.45;3.22;;;26.10;47.20;;;;;;5010664;28;20542;-68
2022/05/05 13:18:43;;;;;;;7.15;3.47;;;26.10;47.80;;;;;;5010069;28;20021;-67
2022/05/05 13:21:09;;;;;;;11.32;4.47;;;26.10;50.90;;;;;;5008551;28;20069;-67
2022/05/05 13:23:36;;;;;;;11.63;4.57;;;26.10;51.70;;;;;;5000848;28;20042;-66